sensor_id;sensor_type;location;lat;lon;timestamp;temperature;humidity
11474;DHT22;5793;52.238;13.438;2022-12-16T00:01:24;-10.60;99.90
11474;DHT22;5793;52.238;13.438;2022-12-16T00:03:54;-10.60;99.90
11474;DHT22;5793;52.238;13.438;2022-12-16T00:06:24;-10.70;99.90
11474;DHT22;5793;52.238;13.438;2022-12-16T00:08:52;-10.70;99.90
11474;DHT22;5793;52.238;13.438;2022-12-16T00:11:20;-10.70;99.90
11474;DHT22;5793;52.238;13.438;2022-12-16T00:13:49;-10.70;99.90
11474;DHT22;5793;52.238;13.438;2022-12-16T00:16:19;-10.50;99.90
11474;DHT22;5793;52.238;13.438;2022-12-16T00:18:48;-10.50;99.90
11474;DHT22;5793;52.238;13.438;2022-12-16T00:21:18;-10.50;99.90
11474;DHT22;5793;52.238;13.438;2022-12-16T00:23:46;-10.50;99.90
11474;DHT22;5793;52.238;13.438;2022-12-16T00:26:14;-10.50;99.90
11474;DHT22;5793;52.238;13.438;2022-12-16T00:28:42;-10.50;99.90
11474;DHT22;5793;52.238;13.438;2022-12-16T00:31:10;-10.50;99.90
11474;DHT22;5793;52.238;13.438;2022-12-16T00:33:40;-10.60;99.90
11474;DHT22;5793;52.238;13.438;2022-12-16T00:36:08;-10.70;99.90
11474;DHT22;5793;52.238;13.438;2022-12-16T00:38:36;-10.70;99.90
11474;DHT22;5793;52.238;13.438;2022-12-16T00:41:04;-10.70;99.90
11474;DHT22;5793;52.238;13.438;2022-12-16T00:43:32;-10.70;99.90
11474;DHT22;5793;52.238;13.438;2022-12-16T00:46:00;-10.70;99.90
11474;DHT22;5793;52.238;13.438;2022-12-16T00:48:28;-10.70;99.90
11474;DHT22;5793;52.238;13.438;2022-12-16T00:50:57;-10.60;99.90
11474;DHT22;5793;52.238;13.438;2022-12-16T00:53:25;-10.70;99.90
11474;DHT22;5793;52.238;13.438;2022-12-16T00:56:01;-10.70;99.90
11474;DHT22;5793;52.238;13.438;2022-12-16T00:58:28;-10.50;99.90
11474;DHT22;5793;52.238;13.438;2022-12-16T01:00:56;-10.60;99.90
11474;DHT22;5793;52.238;13.438;2022-12-16T01:03:24;-10.60;99.90
11474;DHT22;5793;52.238;13.438;2022-12-16T01:05:52;-10.60;99.90
11474;DHT22;5793;52.238;13.438;2022-12-16T01:08:22;-10.60;99.90
11474;DHT22;5793;52.238;13.438;2022-12-16T01:10:50;-10.60;99.90
11474;DHT22;5793;52.238;13.438;2022-12-16T01:13:18;-10.60;99.90
11474;DHT22;5793;52.238;13.438;2022-12-16T01:15:46;-10.80;99.90
11474;DHT22;5793;52.238;13.438;2022-12-16T01:18:14;-10.80;99.90
11474;DHT22;5793;52.238;13.438;2022-12-16T01:20:43;-10.80;99.90
11474;DHT22;5793;52.238;13.438;2022-12-16T01:23:10;-10.80;99.90
11474;DHT22;5793;52.238;13.438;2022-12-16T01:25:39;-10.80;99.90
11474;DHT22;5793;52.238;13.438;2022-12-16T01:28:07;-10.80;99.90
11474;DHT22;5793;52.238;13.438;2022-12-16T01:30:35;-10.80;99.90
11474;DHT22;5793;52.238;13.438;2022-12-16T01:33:03;-10.90;99.90
11474;DHT22;5793;52.238;13.438;2022-12-16T01:35:31;-11.00;99.90
11474;DHT22;5793;52.238;13.438;2022-12-16T01:38:18;-11.00;99.90
11474;DHT22;5793;52.238;13.438;2022-12-16T01:40:47;-11.10;99.90
11474;DHT22;5793;52.238;13.438;2022-12-16T01:43:17;-11.20;99.90
11474;DHT22;5793;52.238;13.438;2022-12-16T01:45:47;-11.20;99.90
11474;DHT22;5793;52.238;13.438;2022-12-16T01:48:21;-11.10;99.90
11474;DHT22;5793;52.238;13.438;2022-12-16T01:50:49;-11.20;99.90
11474;DHT22;5793;52.238;13.438;2022-12-16T01:53:19;-11.20;99.90
11474;DHT22;5793;52.238;13.438;2022-12-16T01:55:48;-11.20;99.90
11474;DHT22;5793;52.238;13.438;2022-12-16T01:58:20;-11.20;99.90
11474;DHT22;5793;52.238;13.438;2022-12-16T02:00:49;-11.20;99.90
11474;DHT22;5793;52.238;13.438;2022-12-16T02:03:20;-11.20;99.90
11474;DHT22;5793;52.238;13.438;2022-12-16T02:05:49;-11.30;99.90
11474;DHT22;5793;52.238;13.438;2022-12-16T02:08:18;-11.30;99.90
11474;DHT22;5793;52.238;13.438;2022-12-16T02:10:58;-11.20;99.90
11474;DHT22;5793;52.238;13.438;2022-12-16T02:13:34;-11.30;99.90
11474;DHT22;5793;52.238;13.438;2022-12-16T02:16:08;-11.30;99.90
11474;DHT22;5793;52.238;13.438;2022-12-16T02:18:50;-11.40;99.90
11474;DHT22;5793;52.238;13.438;2022-12-16T02:21:38;-11.40;99.90
11474;DHT22;5793;52.238;13.438;2022-12-16T02:27:31;-11.20;99.90
11474;DHT22;5793;52.238;13.438;2022-12-16T02:33:04;-11.30;99.90
11474;DHT22;5793;52.238;13.438;2022-12-16T02:35:40;-11.40;99.90
11474;DHT22;5793;52.238;13.438;2022-12-16T02:38:17;-11.40;99.90
11474;DHT22;5793;52.238;13.438;2022-12-16T02:40:51;-11.50;99.90
11474;DHT22;5793;52.238;13.438;2022-12-16T02:43:31;-11.50;99.90
11474;DHT22;5793;52.238;13.438;2022-12-16T02:46:03;-11.40;99.90
11474;DHT22;5793;52.238;13.438;2022-12-16T02:48:33;-11.30;99.90
11474;DHT22;5793;52.238;13.438;2022-12-16T02:51:01;-11.50;99.90
11474;DHT22;5793;52.238;13.438;2022-12-16T02:53:30;-11.30;99.90
11474;DHT22;5793;52.238;13.438;2022-12-16T02:56:05;-11.30;99.90
11474;DHT22;5793;52.238;13.438;2022-12-16T02:58:42;-11.10;99.90
11474;DHT22;5793;52.238;13.438;2022-12-16T03:01:18;-11.10;99.90
11474;DHT22;5793;52.238;13.438;2022-12-16T03:03:57;-11.20;99.90
11474;DHT22;5793;52.238;13.438;2022-12-16T03:06:28;-11.20;99.90
11474;DHT22;5793;52.238;13.438;2022-12-16T03:08:59;-11.20;99.90
11474;DHT22;5793;52.238;13.438;2022-12-16T03:11:29;-11.30;99.90
11474;DHT22;5793;52.238;13.438;2022-12-16T03:13:58;-11.30;99.90
11474;DHT22;5793;52.238;13.438;2022-12-16T03:16:29;-11.40;99.90
11474;DHT22;5793;52.238;13.438;2022-12-16T03:19:01;-11.50;99.90
11474;DHT22;5793;52.238;13.438;2022-12-16T03:21:33;-11.50;99.90
11474;DHT22;5793;52.238;13.438;2022-12-16T03:24:05;-11.50;99.90
11474;DHT22;5793;52.238;13.438;2022-12-16T03:26:38;-11.50;99.90
11474;DHT22;5793;52.238;13.438;2022-12-16T03:29:12;-11.60;99.90
11474;DHT22;5793;52.238;13.438;2022-12-16T03:31:44;-11.60;99.90
11474;DHT22;5793;52.238;13.438;2022-12-16T03:34:18;-11.50;99.90
11474;DHT22;5793;52.238;13.438;2022-12-16T03:36:51;-11.40;99.90
11474;DHT22;5793;52.238;13.438;2022-12-16T03:39:21;-11.40;99.90
11474;DHT22;5793;52.238;13.438;2022-12-16T03:41:50;-11.50;99.90
11474;DHT22;5793;52.238;13.438;2022-12-16T03:44:21;-11.50;99.90
11474;DHT22;5793;52.238;13.438;2022-12-16T03:46:49;-11.50;99.90
11474;DHT22;5793;52.238;13.438;2022-12-16T03:49:19;-11.50;99.90
11474;DHT22;5793;52.238;13.438;2022-12-16T03:51:47;-11.60;99.90
11474;DHT22;5793;52.238;13.438;2022-12-16T03:54:15;-11.50;99.90
11474;DHT22;5793;52.238;13.438;2022-12-16T03:56:44;-11.30;99.90
11474;DHT22;5793;52.238;13.438;2022-12-16T03:59:13;-11.40;99.90
11474;DHT22;5793;52.238;13.438;2022-12-16T04:01:41;-11.40;99.90
11474;DHT22;5793;52.238;13.438;2022-12-16T04:04:09;-11.40;99.90
11474;DHT22;5793;52.238;13.438;2022-12-16T04:06:38;-11.40;99.90
11474;DHT22;5793;52.238;13.438;2022-12-16T04:09:06;-11.40;99.90
11474;DHT22;5793;52.238;13.438;2022-12-16T04:11:34;-11.30;99.90
11474;DHT22;5793;52.238;13.438;2022-12-16T04:14:19;-11.40;99.90
11474;DHT22;5793;52.238;13.438;2022-12-16T04:17:05;-11.50;99.90
11474;DHT22;5793;52.238;13.438;2022-12-16T04:19:53;-11.50;99.90
11474;DHT22;5793;52.238;13.438;2022-12-16T04:22:42;-11.60;99.90
11474;DHT22;5793;52.238;13.438;2022-12-16T04:25:30;-11.60;99.90
11474;DHT22;5793;52.238;13.438;2022-12-16T04:27:59;-11.50;99.90
11474;DHT22;5793;52.238;13.438;2022-12-16T04:30:29;-11.50;99.90
11474;DHT22;5793;52.238;13.438;2022-12-16T04:33:03;-11.30;99.90
11474;DHT22;5793;52.238;13.438;2022-12-16T04:35:48;-11.30;99.90
11474;DHT22;5793;52.238;13.438;2022-12-16T04:38:35;-11.40;99.90
11474;DHT22;5793;52.238;13.438;2022-12-16T04:41:21;-11.40;99.90
11474;DHT22;5793;52.238;13.438;2022-12-16T04:44:06;-11.40;99.90
11474;DHT22;5793;52.238;13.438;2022-12-16T04:46:52;-11.40;99.90
11474;DHT22;5793;52.238;13.438;2022-12-16T04:49:37;-11.50;99.90
11474;DHT22;5793;52.238;13.438;2022-12-16T04:52:23;-11.60;99.90
11474;DHT22;5793;52.238;13.438;2022-12-16T04:55:10;-11.60;99.90
11474;DHT22;5793;52.238;13.438;2022-12-16T04:57:58;-11.50;99.90
11474;DHT22;5793;52.238;13.438;2022-12-16T05:00:44;-11.40;99.90
11474;DHT22;5793;52.238;13.438;2022-12-16T05:03:31;-11.30;99.90
11474;DHT22;5793;52.238;13.438;2022-12-16T05:06:16;-11.30;99.90
11474;DHT22;5793;52.238;13.438;2022-12-16T05:09:02;-11.40;99.90
11474;DHT22;5793;52.238;13.438;2022-12-16T05:11:49;-11.40;99.90
11474;DHT22;5793;52.238;13.438;2022-12-16T05:14:34;-11.50;99.90
11474;DHT22;5793;52.238;13.438;2022-12-16T05:17:20;-11.50;99.90
11474;DHT22;5793;52.238;13.438;2022-12-16T05:20:06;-11.60;99.90
11474;DHT22;5793;52.238;13.438;2022-12-16T05:22:54;-11.50;99.90
11474;DHT22;5793;52.238;13.438;2022-12-16T05:25:40;-11.40;99.90
11474;DHT22;5793;52.238;13.438;2022-12-16T05:28:27;-11.50;99.90
11474;DHT22;5793;52.238;13.438;2022-12-16T05:31:12;-11.50;99.90
11474;DHT22;5793;52.238;13.438;2022-12-16T05:33:58;-11.40;99.90
11474;DHT22;5793;52.238;13.438;2022-12-16T05:36:44;-11.40;99.90
11474;DHT22;5793;52.238;13.438;2022-12-16T05:39:29;-11.50;99.90
11474;DHT22;5793;52.238;13.438;2022-12-16T05:42:26;-11.50;99.90
11474;DHT22;5793;52.238;13.438;2022-12-16T05:45:13;-11.50;99.90
11474;DHT22;5793;52.238;13.438;2022-12-16T05:47:58;-11.50;99.90
11474;DHT22;5793;52.238;13.438;2022-12-16T05:50:44;-11.60;99.90
11474;DHT22;5793;52.238;13.438;2022-12-16T05:53:29;-11.60;99.90
11474;DHT22;5793;52.238;13.438;2022-12-16T05:56:14;-11.60;99.90
11474;DHT22;5793;52.238;13.438;2022-12-16T05:59:00;-11.60;99.90
11474;DHT22;5793;52.238;13.438;2022-12-16T06:01:47;-11.60;99.90
11474;DHT22;5793;52.238;13.438;2022-12-16T06:04:35;-11.70;99.90
11474;DHT22;5793;52.238;13.438;2022-12-16T06:07:20;-11.70;99.90
11474;DHT22;5793;52.238;13.438;2022-12-16T06:10:06;-11.50;99.90
11474;DHT22;5793;52.238;13.438;2022-12-16T06:12:51;-11.60;99.90
11474;DHT22;5793;52.238;13.438;2022-12-16T06:15:37;-11.60;99.90
11474;DHT22;5793;52.238;13.438;2022-12-16T06:18:24;-11.70;99.90
11474;DHT22;5793;52.238;13.438;2022-12-16T06:21:09;-11.60;99.90
11474;DHT22;5793;52.238;13.438;2022-12-16T06:23:54;-11.60;99.90
11474;DHT22;5793;52.238;13.438;2022-12-16T06:26:40;-11.40;99.90
11474;DHT22;5793;52.238;13.438;2022-12-16T06:29:26;-11.40;99.90
11474;DHT22;5793;52.238;13.438;2022-12-16T06:32:11;-11.40;99.90
11474;DHT22;5793;52.238;13.438;2022-12-16T06:34:58;-11.40;99.90
11474;DHT22;5793;52.238;13.438;2022-12-16T06:37:45;-11.50;99.90
11474;DHT22;5793;52.238;13.438;2022-12-16T06:40:31;-11.60;99.90
11474;DHT22;5793;52.238;13.438;2022-12-16T06:43:20;-11.60;99.90
11474;DHT22;5793;52.238;13.438;2022-12-16T06:46:05;-11.60;99.90
11474;DHT22;5793;52.238;13.438;2022-12-16T06:48:51;-11.70;99.90
11474;DHT22;5793;52.238;13.438;2022-12-16T06:51:38;-11.70;99.90
11474;DHT22;5793;52.238;13.438;2022-12-16T06:54:23;-11.70;99.90
11474;DHT22;5793;52.238;13.438;2022-12-16T06:57:08;-11.70;99.90
11474;DHT22;5793;52.238;13.438;2022-12-16T06:59:54;-11.70;99.90
11474;DHT22;5793;52.238;13.438;2022-12-16T07:02:39;-11.60;99.90
11474;DHT22;5793;52.238;13.438;2022-12-16T07:05:25;-11.60;99.90
11474;DHT22;5793;52.238;13.438;2022-12-16T07:08:12;-11.60;99.90
11474;DHT22;5793;52.238;13.438;2022-12-16T07:10:57;-11.60;99.90
11474;DHT22;5793;52.238;13.438;2022-12-16T07:13:45;-11.60;99.90
11474;DHT22;5793;52.238;13.438;2022-12-16T07:16:31;-11.60;99.90
11474;DHT22;5793;52.238;13.438;2022-12-16T07:19:16;-11.60;99.90
11474;DHT22;5793;52.238;13.438;2022-12-16T07:22:01;-11.50;99.90
11474;DHT22;5793;52.238;13.438;2022-12-16T07:24:48;-11.50;99.90
11474;DHT22;5793;52.238;13.438;2022-12-16T07:27:34;-11.40;99.90
11474;DHT22;5793;52.238;13.438;2022-12-16T07:30:19;-11.40;99.90
11474;DHT22;5793;52.238;13.438;2022-12-16T07:33:05;-11.20;99.90
11474;DHT22;5793;52.238;13.438;2022-12-16T07:35:50;-11.10;99.90
11474;DHT22;5793;52.238;13.438;2022-12-16T07:38:36;-11.10;99.90
11474;DHT22;5793;52.238;13.438;2022-12-16T07:41:22;-11.10;99.90
11474;DHT22;5793;52.238;13.438;2022-12-16T07:44:08;-11.20;99.90
11474;DHT22;5793;52.238;13.438;2022-12-16T07:46:52;-11.10;99.90
11474;DHT22;5793;52.238;13.438;2022-12-16T07:49:38;-10.90;99.90
11474;DHT22;5793;52.238;13.438;2022-12-16T07:52:23;-10.80;99.90
11474;DHT22;5793;52.238;13.438;2022-12-16T07:55:09;-10.80;99.90
11474;DHT22;5793;52.238;13.438;2022-12-16T07:58:04;-10.80;99.90
11474;DHT22;5793;52.238;13.438;2022-12-16T08:00:50;-10.80;99.90
11474;DHT22;5793;52.238;13.438;2022-12-16T08:03:35;-10.80;99.90
11474;DHT22;5793;52.238;13.438;2022-12-16T08:06:21;-10.80;99.90
11474;DHT22;5793;52.238;13.438;2022-12-16T08:09:06;-10.70;99.90
11474;DHT22;5793;52.238;13.438;2022-12-16T08:11:52;-10.60;99.90
11474;DHT22;5793;52.238;13.438;2022-12-16T08:14:39;-10.50;99.90
11474;DHT22;5793;52.238;13.438;2022-12-16T08:17:24;-10.40;99.90
11474;DHT22;5793;52.238;13.438;2022-12-16T08:20:10;-10.40;99.90
11474;DHT22;5793;52.238;13.438;2022-12-16T08:22:55;-10.30;99.90
11474;DHT22;5793;52.238;13.438;2022-12-16T08:25:40;-10.10;99.90
11474;DHT22;5793;52.238;13.438;2022-12-16T08:28:26;-9.90;99.90
11474;DHT22;5793;52.238;13.438;2022-12-16T08:31:13;-9.80;99.90
11474;DHT22;5793;52.238;13.438;2022-12-16T08:33:58;-9.70;99.90
11474;DHT22;5793;52.238;13.438;2022-12-16T08:36:44;-9.60;99.90
11474;DHT22;5793;52.238;13.438;2022-12-16T08:39:29;-9.50;99.90
11474;DHT22;5793;52.238;13.438;2022-12-16T08:42:35;-9.40;99.90
11474;DHT22;5793;52.238;13.438;2022-12-16T08:45:26;-9.20;99.90
11474;DHT22;5793;52.238;13.438;2022-12-16T08:48:12;-9.00;99.90
11474;DHT22;5793;52.238;13.438;2022-12-16T08:51:00;-8.80;99.90
11474;DHT22;5793;52.238;13.438;2022-12-16T08:53:45;-8.60;99.90
11474;DHT22;5793;52.238;13.438;2022-12-16T08:56:31;-8.40;99.90
11474;DHT22;5793;52.238;13.438;2022-12-16T08:59:16;-8.10;99.90
11474;DHT22;5793;52.238;13.438;2022-12-16T09:02:01;-8.00;99.90
11474;DHT22;5793;52.238;13.438;2022-12-16T09:04:48;-7.80;99.90
11474;DHT22;5793;52.238;13.438;2022-12-16T09:07:33;-7.60;99.90
11474;DHT22;5793;52.238;13.438;2022-12-16T09:10:20;-7.50;99.90
11474;DHT22;5793;52.238;13.438;2022-12-16T09:13:07;-7.30;99.90
11474;DHT22;5793;52.238;13.438;2022-12-16T09:15:52;-7.20;99.90
11474;DHT22;5793;52.238;13.438;2022-12-16T09:18:44;-7.00;99.90
11474;DHT22;5793;52.238;13.438;2022-12-16T09:21:37;-6.90;99.90
11474;DHT22;5793;52.238;13.438;2022-12-16T09:24:22;-6.70;99.90
11474;DHT22;5793;52.238;13.438;2022-12-16T09:27:08;-6.50;99.90
11474;DHT22;5793;52.238;13.438;2022-12-16T09:29:53;-6.50;99.90
11474;DHT22;5793;52.238;13.438;2022-12-16T09:32:40;-6.30;99.90
11474;DHT22;5793;52.238;13.438;2022-12-16T09:35:26;-6.10;99.90
11474;DHT22;5793;52.238;13.438;2022-12-16T09:38:13;-5.80;99.90
11474;DHT22;5793;52.238;13.438;2022-12-16T09:41:13;-5.80;99.90
11474;DHT22;5793;52.238;13.438;2022-12-16T09:44:16;-5.60;99.90
11474;DHT22;5793;52.238;13.438;2022-12-16T09:47:08;-5.50;99.90
11474;DHT22;5793;52.238;13.438;2022-12-16T09:49:55;-5.30;99.90
11474;DHT22;5793;52.238;13.438;2022-12-16T09:52:44;-5.20;99.90
11474;DHT22;5793;52.238;13.438;2022-12-16T09:55:35;-5.00;99.90
11474;DHT22;5793;52.238;13.438;2022-12-16T09:58:24;-4.90;99.90
11474;DHT22;5793;52.238;13.438;2022-12-16T10:01:11;-4.80;99.90
11474;DHT22;5793;52.238;13.438;2022-12-16T10:03:57;-4.70;99.90
11474;DHT22;5793;52.238;13.438;2022-12-16T10:06:45;-4.50;99.90
11474;DHT22;5793;52.238;13.438;2022-12-16T10:09:35;-4.50;99.90
11474;DHT22;5793;52.238;13.438;2022-12-16T10:12:31;-4.30;99.90
11474;DHT22;5793;52.238;13.438;2022-12-16T10:15:26;-4.30;99.90
11474;DHT22;5793;52.238;13.438;2022-12-16T10:18:28;-4.10;99.90
11474;DHT22;5793;52.238;13.438;2022-12-16T10:21:20;-4.10;99.90
11474;DHT22;5793;52.238;13.438;2022-12-16T10:24:21;-4.00;99.90
11474;DHT22;5793;52.238;13.438;2022-12-16T10:27:13;-4.00;99.90
11474;DHT22;5793;52.238;13.438;2022-12-16T10:30:00;-3.90;99.90
11474;DHT22;5793;52.238;13.438;2022-12-16T10:32:48;-3.80;99.90
11474;DHT22;5793;52.238;13.438;2022-12-16T10:35:36;-3.70;99.90
11474;DHT22;5793;52.238;13.438;2022-12-16T10:38:33;-3.70;99.90
11474;DHT22;5793;52.238;13.438;2022-12-16T10:41:24;-3.60;99.90
11474;DHT22;5793;52.238;13.438;2022-12-16T10:44:16;-3.50;99.90
11474;DHT22;5793;52.238;13.438;2022-12-16T10:47:05;-3.40;99.90
11474;DHT22;5793;52.238;13.438;2022-12-16T10:49:53;-3.20;99.90
11474;DHT22;5793;52.238;13.438;2022-12-16T10:52:50;-2.50;99.90
11474;DHT22;5793;52.238;13.438;2022-12-16T10:55:49;-1.30;99.90
11474;DHT22;5793;52.238;13.438;2022-12-16T10:58:44;-0.20;99.90
11474;DHT22;5793;52.238;13.438;2022-12-16T11:01:31;1.70;99.90
11474;DHT22;5793;52.238;13.438;2022-12-16T11:04:31;3.20;99.90
11474;DHT22;5793;52.238;13.438;2022-12-16T11:07:35;5.30;99.90
11474;DHT22;5793;52.238;13.438;2022-12-16T11:10:29;6.10;96.80
11474;DHT22;5793;52.238;13.438;2022-12-16T11:13:21;5.80;95.90
11474;DHT22;5793;52.238;13.438;2022-12-16T11:16:11;5.60;97.40
11474;DHT22;5793;52.238;13.438;2022-12-16T11:18:58;5.30;96.10
11474;DHT22;5793;52.238;13.438;2022-12-16T11:21:45;5.00;99.20
11474;DHT22;5793;52.238;13.438;2022-12-16T11:24:32;5.20;98.40
11474;DHT22;5793;52.238;13.438;2022-12-16T11:27:32;4.80;99.90
11474;DHT22;5793;52.238;13.438;2022-12-16T11:30:20;4.30;99.90
11474;DHT22;5793;52.238;13.438;2022-12-16T11:33:12;3.70;99.90
11474;DHT22;5793;52.238;13.438;2022-12-16T11:36:09;2.70;99.90
11474;DHT22;5793;52.238;13.438;2022-12-16T11:38:57;2.10;99.90
11474;DHT22;5793;52.238;13.438;2022-12-16T11:41:46;1.60;99.90
11474;DHT22;5793;52.238;13.438;2022-12-16T11:44:34;1.60;99.90
11474;DHT22;5793;52.238;13.438;2022-12-16T11:47:26;1.40;99.90
11474;DHT22;5793;52.238;13.438;2022-12-16T11:50:18;1.10;99.90
11474;DHT22;5793;52.238;13.438;2022-12-16T11:53:01;0.60;99.90
11474;DHT22;5793;52.238;13.438;2022-12-16T11:55:51;0.10;99.90
11474;DHT22;5793;52.238;13.438;2022-12-16T11:58:45;-0.20;99.90
11474;DHT22;5793;52.238;13.438;2022-12-16T12:01:35;-0.30;99.90
11474;DHT22;5793;52.238;13.438;2022-12-16T12:04:36;-0.40;99.90
11474;DHT22;5793;52.238;13.438;2022-12-16T12:07:26;-0.50;99.90
11474;DHT22;5793;52.238;13.438;2022-12-16T12:10:37;-0.60;99.90
11474;DHT22;5793;52.238;13.438;2022-12-16T12:13:38;-0.50;99.90
11474;DHT22;5793;52.238;13.438;2022-12-16T12:16:32;-0.40;99.90
11474;DHT22;5793;52.238;13.438;2022-12-16T12:19:22;-0.20;99.90
11474;DHT22;5793;52.238;13.438;2022-12-16T12:22:15;0.00;99.90
11474;DHT22;5793;52.238;13.438;2022-12-16T12:25:07;0.10;99.90
11474;DHT22;5793;52.238;13.438;2022-12-16T12:27:58;0.10;99.90
11474;DHT22;5793;52.238;13.438;2022-12-16T12:30:53;0.10;99.90
11474;DHT22;5793;52.238;13.438;2022-12-16T12:33:49;0.00;99.90
11474;DHT22;5793;52.238;13.438;2022-12-16T12:36:43;-0.30;99.90
11474;DHT22;5793;52.238;13.438;2022-12-16T12:39:34;-0.50;99.90
11474;DHT22;5793;52.238;13.438;2022-12-16T12:42:27;-0.90;99.90
11474;DHT22;5793;52.238;13.438;2022-12-16T12:45:44;-1.00;99.90
11474;DHT22;5793;52.238;13.438;2022-12-16T12:48:39;-0.90;99.90
11474;DHT22;5793;52.238;13.438;2022-12-16T12:51:29;-0.90;99.90
11474;DHT22;5793;52.238;13.438;2022-12-16T12:54:25;-0.80;99.90
11474;DHT22;5793;52.238;13.438;2022-12-16T12:57:14;-0.80;99.90
11474;DHT22;5793;52.238;13.438;2022-12-16T13:00:05;-0.80;99.90
11474;DHT22;5793;52.238;13.438;2022-12-16T13:02:58;-0.80;99.90
11474;DHT22;5793;52.238;13.438;2022-12-16T13:05:43;-0.80;99.90
11474;DHT22;5793;52.238;13.438;2022-12-16T13:08:31;-0.80;99.90
11474;DHT22;5793;52.238;13.438;2022-12-16T13:11:16;-0.80;99.90
11474;DHT22;5793;52.238;13.438;2022-12-16T13:14:01;-0.70;99.90
11474;DHT22;5793;52.238;13.438;2022-12-16T13:17:04;-0.70;99.90
11474;DHT22;5793;52.238;13.438;2022-12-16T13:19:53;-0.80;99.90
11474;DHT22;5793;52.238;13.438;2022-12-16T13:22:41;-0.80;99.90
11474;DHT22;5793;52.238;13.438;2022-12-16T13:25:36;-0.90;99.90
11474;DHT22;5793;52.238;13.438;2022-12-16T13:28:24;-0.80;99.90
11474;DHT22;5793;52.238;13.438;2022-12-16T13:31:11;-0.80;99.90
11474;DHT22;5793;52.238;13.438;2022-12-16T13:34:05;-0.80;99.90
11474;DHT22;5793;52.238;13.438;2022-12-16T13:37:01;-0.80;99.90
11474;DHT22;5793;52.238;13.438;2022-12-16T13:40:03;-0.80;99.90
11474;DHT22;5793;52.238;13.438;2022-12-16T13:42:53;-0.90;99.90
11474;DHT22;5793;52.238;13.438;2022-12-16T13:45:41;-0.70;99.90
11474;DHT22;5793;52.238;13.438;2022-12-16T13:48:33;-0.80;99.90
11474;DHT22;5793;52.238;13.438;2022-12-16T13:54:51;-0.80;99.90
11474;DHT22;5793;52.238;13.438;2022-12-16T13:57:41;-0.90;99.90
11474;DHT22;5793;52.238;13.438;2022-12-16T14:00:28;-1.00;99.90
11474;DHT22;5793;52.238;13.438;2022-12-16T14:03:18;-1.10;99.90
11474;DHT22;5793;52.238;13.438;2022-12-16T14:06:08;-1.10;99.90
11474;DHT22;5793;52.238;13.438;2022-12-16T14:08:55;-1.10;99.90
11474;DHT22;5793;52.238;13.438;2022-12-16T14:11:45;-1.20;99.90
11474;DHT22;5793;52.238;13.438;2022-12-16T14:14:38;-1.20;99.90
11474;DHT22;5793;52.238;13.438;2022-12-16T14:17:30;-1.20;99.90
11474;DHT22;5793;52.238;13.438;2022-12-16T14:20:21;-1.20;99.90
11474;DHT22;5793;52.238;13.438;2022-12-16T14:23:21;-1.20;99.90
11474;DHT22;5793;52.238;13.438;2022-12-16T14:26:25;-1.30;99.90
11474;DHT22;5793;52.238;13.438;2022-12-16T14:29:22;-1.30;99.90
11474;DHT22;5793;52.238;13.438;2022-12-16T14:32:23;-1.30;99.90
11474;DHT22;5793;52.238;13.438;2022-12-16T14:35:12;-1.30;99.90
11474;DHT22;5793;52.238;13.438;2022-12-16T14:38:13;-1.30;99.90
11474;DHT22;5793;52.238;13.438;2022-12-16T14:41:02;-1.40;99.90
11474;DHT22;5793;52.238;13.438;2022-12-16T14:43:47;-1.50;99.90
11474;DHT22;5793;52.238;13.438;2022-12-16T14:46:32;-1.40;99.90
11474;DHT22;5793;52.238;13.438;2022-12-16T14:49:22;-1.50;99.90
11474;DHT22;5793;52.238;13.438;2022-12-16T14:52:16;-1.50;99.90
11474;DHT22;5793;52.238;13.438;2022-12-16T14:55:14;-1.50;99.90
11474;DHT22;5793;52.238;13.438;2022-12-16T14:58:04;-1.50;99.90
11474;DHT22;5793;52.238;13.438;2022-12-16T15:00:50;-1.60;99.90
11474;DHT22;5793;52.238;13.438;2022-12-16T15:03:44;-1.60;99.90
11474;DHT22;5793;52.238;13.438;2022-12-16T15:06:33;-1.50;99.90
11474;DHT22;5793;52.238;13.438;2022-12-16T15:09:26;-1.50;99.90
11474;DHT22;5793;52.238;13.438;2022-12-16T15:12:18;-1.60;99.90
11474;DHT22;5793;52.238;13.438;2022-12-16T15:15:06;-1.60;99.90
11474;DHT22;5793;52.238;13.438;2022-12-16T15:17:55;-1.60;99.90
11474;DHT22;5793;52.238;13.438;2022-12-16T15:20:49;-1.60;99.90
11474;DHT22;5793;52.238;13.438;2022-12-16T15:23:40;-1.70;99.90
11474;DHT22;5793;52.238;13.438;2022-12-16T15:26:28;-1.60;99.90
11474;DHT22;5793;52.238;13.438;2022-12-16T15:29:30;-1.70;99.90
11474;DHT22;5793;52.238;13.438;2022-12-16T15:32:27;-1.80;99.90
11474;DHT22;5793;52.238;13.438;2022-12-16T15:35:10;-1.80;99.90
11474;DHT22;5793;52.238;13.438;2022-12-16T15:37:55;-1.80;99.90
11474;DHT22;5793;52.238;13.438;2022-12-16T15:40:49;-1.70;99.90
11474;DHT22;5793;52.238;13.438;2022-12-16T15:43:38;-1.70;99.90
11474;DHT22;5793;52.238;13.438;2022-12-16T15:46:26;-1.70;99.90
11474;DHT22;5793;52.238;13.438;2022-12-16T15:49:18;-1.80;99.90
11474;DHT22;5793;52.238;13.438;2022-12-16T15:52:20;-1.80;99.90
11474;DHT22;5793;52.238;13.438;2022-12-16T15:55:22;-1.80;99.90
11474;DHT22;5793;52.238;13.438;2022-12-16T15:58:14;-1.80;99.90
11474;DHT22;5793;52.238;13.438;2022-12-16T16:01:00;-1.90;99.90
11474;DHT22;5793;52.238;13.438;2022-12-16T16:03:50;-1.90;99.90
11474;DHT22;5793;52.238;13.438;2022-12-16T16:06:36;-1.80;99.90
11474;DHT22;5793;52.238;13.438;2022-12-16T16:09:23;-1.90;99.90
11474;DHT22;5793;52.238;13.438;2022-12-16T16:12:09;-1.90;99.90
11474;DHT22;5793;52.238;13.438;2022-12-16T16:14:57;-1.90;99.90
11474;DHT22;5793;52.238;13.438;2022-12-16T16:17:42;-2.00;99.90
11474;DHT22;5793;52.238;13.438;2022-12-16T16:20:28;-2.00;99.90
11474;DHT22;5793;52.238;13.438;2022-12-16T16:23:13;-2.00;99.90
11474;DHT22;5793;52.238;13.438;2022-12-16T16:26:00;-2.00;99.90
11474;DHT22;5793;52.238;13.438;2022-12-16T16:28:45;-2.10;99.90
11474;DHT22;5793;52.238;13.438;2022-12-16T16:31:32;-2.10;99.90
11474;DHT22;5793;52.238;13.438;2022-12-16T16:34:17;-2.10;99.90
11474;DHT22;5793;52.238;13.438;2022-12-16T16:37:10;-2.00;99.90
11474;DHT22;5793;52.238;13.438;2022-12-16T16:39:57;-2.10;99.90
11474;DHT22;5793;52.238;13.438;2022-12-16T16:42:45;-2.10;99.90
11474;DHT22;5793;52.238;13.438;2022-12-16T16:45:30;-2.20;99.90
11474;DHT22;5793;52.238;13.438;2022-12-16T16:48:19;-2.10;99.90
11474;DHT22;5793;52.238;13.438;2022-12-16T16:51:05;-2.00;99.90
11474;DHT22;5793;52.238;13.438;2022-12-16T16:53:50;-2.10;99.90
11474;DHT22;5793;52.238;13.438;2022-12-16T16:56:36;-2.10;99.90
11474;DHT22;5793;52.238;13.438;2022-12-16T16:59:23;-2.10;99.90
11474;DHT22;5793;52.238;13.438;2022-12-16T17:02:14;-2.10;99.90
11474;DHT22;5793;52.238;13.438;2022-12-16T17:05:08;-2.10;99.90
11474;DHT22;5793;52.238;13.438;2022-12-16T17:07:54;-2.10;99.90
11474;DHT22;5793;52.238;13.438;2022-12-16T17:10:39;-2.20;99.90
11474;DHT22;5793;52.238;13.438;2022-12-16T17:13:25;-2.10;99.90
11474;DHT22;5793;52.238;13.438;2022-12-16T17:16:13;-2.20;99.90
11474;DHT22;5793;52.238;13.438;2022-12-16T17:18:58;-2.20;99.90
11474;DHT22;5793;52.238;13.438;2022-12-16T17:21:45;-2.10;99.90